Terminal Aerodrome Forecast
Issued by NWS Melbourne, FL

Current Version | Previous Version | Text Only | Print | Product List | Glossary On
Versions: 1 2 3 4 5 6 7 8 9 10 11 12 13 14 15
000
FTUS42 KMLB 271827 AAB
TAFMLB
TAF AMD
KMLB 271827Z 2718/2818 32011KT P6SM SCT130 BKN200
     FM280200 05008KT P6SM VCSH SCT030 BKN060
     FM280600 VRB04KT P6SM FEW025 BKN120
     FM281400 11006KT P6SM VCSH SCT015 BKN030=

USA.gov is the U.S. government's official web portal to all federal, state and local government web resources and services.